createdAt,value
2018-04-27T00:00:42.452Z,1013.05
2018-04-27T00:01:42.408Z,1013.06
2018-04-27T00:02:42.360Z,1013.10
2018-04-27T00:03:42.319Z,1013.05
2018-04-27T00:04:42.271Z,1012.98
2018-04-27T00:05:42.225Z,1013.00
2018-04-27T00:06:42.180Z,1013.01
2018-04-27T00:07:42.136Z,1012.98
2018-04-27T00:08:42.088Z,1012.99
2018-04-27T00:09:42.040Z,1012.99
2018-04-27T00:10:42.003Z,1013.02
2018-04-27T00:11:41.971Z,1012.98
2018-04-27T00:12:41.911Z,1012.98
2018-04-27T00:13:41.856Z,1012.98
2018-04-27T00:14:41.814Z,1012.95
2018-04-27T00:15:41.768Z,1012.97
2018-04-27T00:16:41.737Z,1012.97
2018-04-27T00:17:41.677Z,1012.93
2018-04-27T00:18:41.630Z,1012.94
2018-04-27T00:19:41.584Z,1012.91
2018-04-27T00:20:41.537Z,1012.90
2018-04-27T00:21:41.490Z,1012.89
2018-04-27T00:22:41.445Z,1012.85
2018-04-27T00:23:41.405Z,1012.83
2018-04-27T00:24:41.360Z,1012.87
2018-04-27T00:25:41.307Z,1012.87
2018-04-27T00:26:41.263Z,1012.85
2018-04-27T00:27:41.217Z,1012.88
2018-04-27T00:28:41.173Z,1012.87
2018-04-27T00:29:41.125Z,1012.84
2018-04-27T00:30:41.082Z,1012.84
2018-04-27T00:31:41.034Z,1012.82
2018-04-27T00:32:40.988Z,1012.82
2018-04-27T00:33:40.942Z,1012.80
2018-04-27T00:34:40.897Z,1012.82
2018-04-27T00:35:40.852Z,1012.82
2018-04-27T00:36:40.818Z,1012.76
2018-04-27T00:37:40.762Z,1012.74
2018-04-27T00:38:40.719Z,1012.74
2018-04-27T00:39:40.669Z,1012.73
2018-04-27T00:40:40.620Z,1012.75
2018-04-27T00:41:40.576Z,1012.77
2018-04-27T00:42:40.532Z,1012.75
2018-04-27T00:43:40.486Z,1012.70
2018-04-27T00:44:40.439Z,1012.73
2018-04-27T00:45:40.394Z,1012.74
2018-04-27T00:46:40.350Z,1012.72
2018-04-27T00:47:40.305Z,1012.70
2018-04-27T00:48:40.258Z,1012.69
2018-04-27T00:49:40.218Z,1012.69
2018-04-27T00:50:40.172Z,1012.71
2018-04-27T00:51:40.123Z,1012.67
2018-04-27T00:52:40.107Z,1012.69
2018-04-27T00:53:40.028Z,1012.64
2018-04-27T00:54:39.985Z,1012.64
2018-04-27T00:55:39.940Z,1012.59
2018-04-27T00:56:39.894Z,1012.64
2018-04-27T00:57:39.846Z,1012.59
2018-04-27T00:58:39.803Z,1012.58
2018-04-27T00:59:39.758Z,1012.58
2018-04-27T01:00:39.706Z,1012.57
2018-04-27T01:01:39.665Z,1012.59
2018-04-27T01:02:39.617Z,1012.55
2018-04-27T01:03:39.570Z,1012.52
2018-04-27T01:04:39.526Z,1012.56
2018-04-27T01:05:39.478Z,1012.48
2018-04-27T01:06:39.435Z,1012.54
2018-04-27T01:07:39.391Z,1012.55
2018-04-27T01:08:39.343Z,1012.58
2018-04-27T01:09:39.299Z,1012.60
2018-04-27T01:10:39.253Z,1012.59
2018-04-27T01:11:39.206Z,1012.62
2018-04-27T01:12:39.159Z,1012.63
2018-04-27T01:13:39.113Z,1012.61
2018-04-27T01:14:39.069Z,1012.63
2018-04-27T01:15:39.024Z,1012.63
2018-04-27T01:16:38.976Z,1012.65
2018-04-27T01:17:38.929Z,1012.64
2018-04-27T01:18:38.885Z,1012.63
2018-04-27T01:19:38.840Z,1012.61
2018-04-27T01:20:38.794Z,1012.62
2018-04-27T01:21:38.748Z,1012.63
2018-04-27T01:22:38.704Z,1012.63
2018-04-27T01:23:38.660Z,1012.64
2018-04-27T01:24:38.610Z,1012.61
2018-04-27T01:25:38.564Z,1012.56
2018-04-27T01:26:38.522Z,1012.59
2018-04-27T01:27:38.475Z,1012.54
2018-04-27T01:28:38.429Z,1012.56
2018-04-27T01:29:38.380Z,1012.54
2018-04-27T01:30:38.335Z,1012.48
2018-04-27T01:31:38.288Z,1012.53
2018-04-27T01:32:38.241Z,1012.57
2018-04-27T01:33:38.196Z,1012.54
2018-04-27T01:34:38.151Z,1012.57
2018-04-27T01:35:38.108Z,1012.55
2018-04-27T01:36:38.059Z,1012.57
2018-04-27T01:37:38.016Z,1012.56
2018-04-27T01:38:37.968Z,1012.55
2018-04-27T01:39:37.925Z,1012.55
2018-04-27T01:40:37.875Z,1012.52
2018-04-27T01:41:37.835Z,1012.47
2018-04-27T01:42:37.784Z,1012.47
2018-04-27T01:43:37.739Z,1012.46
2018-04-27T01:44:37.693Z,1012.45
2018-04-27T01:45:37.646Z,1012.40
2018-04-27T01:46:37.604Z,1012.40
2018-04-27T01:47:37.554Z,1012.40
2018-04-27T01:48:37.511Z,1012.34
2018-04-27T01:49:37.466Z,1012.39
2018-04-27T01:50:37.420Z,1012.38
2018-04-27T01:51:37.372Z,1012.36
2018-04-27T01:52:37.331Z,1012.37
2018-04-27T01:53:37.281Z,1012.36
2018-04-27T01:54:37.236Z,1012.35
2018-04-27T01:55:37.191Z,1012.33
2018-04-27T01:56:37.145Z,1012.35
2018-04-27T01:57:37.098Z,1012.37
2018-04-27T01:58:37.054Z,1012.33
2018-04-27T01:59:37.008Z,1012.30
2018-04-27T02:00:36.961Z,1012.29
2018-04-27T02:01:36.915Z,1012.29
2018-04-27T02:02:36.870Z,1012.26
2018-04-27T02:03:36.822Z,1012.25
2018-04-27T02:04:36.776Z,1012.25
2018-04-27T02:05:36.736Z,1012.23
2018-04-27T02:06:36.687Z,1012.22
2018-04-27T02:07:36.641Z,1012.20
2018-04-27T02:08:36.594Z,1012.20
2018-04-27T02:09:36.547Z,1012.19
2018-04-27T02:10:36.502Z,1012.17
2018-04-27T02:11:36.455Z,1012.17
2018-04-27T02:12:36.409Z,1012.20
2018-04-27T02:13:36.364Z,1012.17
2018-04-27T02:14:36.319Z,1012.17
2018-04-27T02:15:36.272Z,1012.17
2018-04-27T02:16:36.228Z,1012.17
2018-04-27T02:17:36.180Z,1012.17
2018-04-27T02:18:36.135Z,1012.14
2018-04-27T02:19:36.089Z,1012.19
2018-04-27T02:20:36.044Z,1012.17
2018-04-27T02:21:35.996Z,1012.14
2018-04-27T02:22:35.953Z,1012.14
2018-04-27T02:23:35.904Z,1012.17
2018-04-27T02:24:35.860Z,1012.15
2018-04-27T02:25:35.811Z,1012.17
2018-04-27T02:26:35.768Z,1012.10
2018-04-27T02:27:35.721Z,1012.09
2018-04-27T02:28:35.679Z,1012.07
2018-04-27T02:29:35.630Z,1012.07
2018-04-27T02:30:35.586Z,1012.07
2018-04-27T02:31:35.550Z,1012.04
2018-04-27T02:32:35.492Z,1012.05
2018-04-27T02:33:35.445Z,1012.03
2018-04-27T02:34:35.400Z,1012.07
2018-04-27T02:35:35.353Z,1012.05
2018-04-27T02:36:35.306Z,1012.08
2018-04-27T02:37:35.261Z,1012.06
2018-04-27T02:38:35.214Z,1012.08
2018-04-27T02:39:35.176Z,1012.11
2018-04-27T02:40:35.122Z,1012.09
2018-04-27T02:41:35.080Z,1012.13
2018-04-27T02:42:35.043Z,1012.10
2018-04-27T02:43:34.987Z,1012.06
2018-04-27T02:44:34.939Z,1012.08
2018-04-27T02:45:34.892Z,1012.06
2018-04-27T02:46:34.847Z,1012.07
2018-04-27T02:47:34.800Z,1012.06
2018-04-27T02:48:34.757Z,1012.05
2018-04-27T02:49:34.709Z,1012.05
2018-04-27T02:50:34.664Z,1012.06
2018-04-27T02:51:34.633Z,1012.00
2018-04-27T02:52:34.575Z,1011.99
2018-04-27T02:53:34.528Z,1011.96
2018-04-27T02:54:34.482Z,1012.02
2018-04-27T02:55:34.433Z,1011.98
2018-04-27T02:56:34.387Z,1011.99
2018-04-27T02:57:34.340Z,1011.99
2018-04-27T02:58:34.296Z,1011.96
2018-04-27T02:59:34.249Z,1011.96
2018-04-27T03:00:34.208Z,1011.95
2018-04-27T03:01:34.157Z,1011.97
2018-04-27T03:02:34.111Z,1011.98
2018-04-27T03:03:34.067Z,1011.95
2018-04-27T03:04:34.021Z,1011.94
2018-04-27T03:05:33.978Z,1011.92
2018-04-27T03:06:33.929Z,1011.97
2018-04-27T03:07:33.885Z,1011.95
2018-04-27T03:08:33.839Z,1011.98
2018-04-27T03:09:33.790Z,1011.98
2018-04-27T03:10:33.746Z,1011.99
2018-04-27T03:11:33.699Z,1011.97
2018-04-27T03:12:33.652Z,1011.98
2018-04-27T03:13:33.608Z,1011.98
2018-04-27T03:14:33.560Z,1011.93
2018-04-27T03:15:33.515Z,1011.95
2018-04-27T03:16:33.467Z,1011.93
2018-04-27T03:17:33.420Z,1011.90
2018-04-27T03:18:33.378Z,1011.90
2018-04-27T03:19:33.330Z,1011.88
2018-04-27T03:20:33.283Z,1011.86
2018-04-27T03:21:33.238Z,1011.83
2018-04-27T03:22:33.190Z,1011.82
2018-04-27T03:23:33.146Z,1011.77
2018-04-27T03:24:33.099Z,1011.79
2018-04-27T03:25:33.051Z,1011.80
2018-04-27T03:26:33.008Z,1011.77
2018-04-27T03:27:32.963Z,1011.78
2018-04-27T03:28:32.915Z,1011.75
2018-04-27T03:29:32.867Z,1011.73
2018-04-27T03:30:32.830Z,1011.73
2018-04-27T03:31:32.780Z,1011.75
2018-04-27T03:32:32.733Z,1011.76
2018-04-27T03:33:32.685Z,1011.74
2018-04-27T03:34:32.638Z,1011.75
2018-04-27T03:35:32.597Z,1011.77
2018-04-27T03:36:32.546Z,1011.73
2018-04-27T03:37:32.501Z,1011.75
2018-04-27T03:38:32.456Z,1011.72
2018-04-27T03:39:32.409Z,1011.75
2018-04-27T03:40:32.360Z,1011.73
2018-04-27T03:41:32.314Z,1011.72
2018-04-27T03:42:32.269Z,1011.68
2018-04-27T03:43:32.225Z,1011.62
2018-04-27T03:44:32.178Z,1011.62
2018-04-27T03:45:32.133Z,1011.63
2018-04-27T03:46:32.085Z,1011.61
2018-04-27T03:47:32.044Z,1011.61
2018-04-27T03:48:31.991Z,1011.64
2018-04-27T03:49:31.946Z,1011.63
2018-04-27T03:50:31.898Z,1011.61
2018-04-27T03:51:31.857Z,1011.56
2018-04-27T03:52:31.806Z,1011.59
2018-04-27T03:53:31.760Z,1011.59
2018-04-27T03:54:31.714Z,1011.57
2018-04-27T03:55:31.674Z,1011.52
2018-04-27T03:56:31.621Z,1011.51
2018-04-27T03:57:31.577Z,1011.48
2018-04-27T03:58:31.533Z,1011.47
2018-04-27T03:59:31.486Z,1011.48
2018-04-27T04:00:31.438Z,1011.48
2018-04-27T04:01:31.393Z,1011.45
2018-04-27T04:02:31.359Z,1011.47
2018-04-27T04:03:31.298Z,1011.47
2018-04-27T04:04:31.254Z,1011.45
2018-04-27T04:05:31.213Z,1011.42
2018-04-27T04:06:31.161Z,1011.46
2018-04-27T04:07:31.113Z,1011.44
2018-04-27T04:08:31.068Z,1011.44
2018-04-27T04:09:31.025Z,1011.42
2018-04-27T04:10:30.975Z,1011.42
2018-04-27T04:11:30.934Z,1011.38
2018-04-27T04:12:30.884Z,1011.34
2018-04-27T04:13:30.835Z,1011.37
2018-04-27T04:14:30.789Z,1011.36
2018-04-27T04:15:30.742Z,1011.36
2018-04-27T04:16:30.700Z,1011.40
2018-04-27T04:17:30.653Z,1011.35
2018-04-27T04:18:30.608Z,1011.34
2018-04-27T04:19:30.562Z,1011.29
2018-04-27T04:20:30.534Z,1011.29
2018-04-27T04:21:30.466Z,1011.27
2018-04-27T04:22:30.430Z,1011.31
2018-04-27T04:23:30.371Z,1011.31
2018-04-27T04:24:30.328Z,1011.28
2018-04-27T04:25:30.282Z,1011.30
2018-04-27T04:26:30.239Z,1011.33
2018-04-27T04:27:30.187Z,1011.32
2018-04-27T04:28:30.140Z,1011.29
2018-04-27T04:29:30.097Z,1011.28
2018-04-27T04:30:30.048Z,1011.29
2018-04-27T04:31:30.007Z,1011.27
2018-04-27T04:32:29.955Z,1011.27
2018-04-27T04:33:29.907Z,1011.24
2018-04-27T04:34:29.862Z,1011.23
2018-04-27T04:35:29.826Z,1011.25
2018-04-27T04:36:29.771Z,1011.26
2018-04-27T04:37:29.723Z,1011.28
2018-04-27T04:38:29.681Z,1011.30
2018-04-27T04:39:29.631Z,1011.28
2018-04-27T04:40:29.585Z,1011.26
2018-04-27T04:41:29.537Z,1011.22
2018-04-27T04:42:29.497Z,1011.19
2018-04-27T04:43:29.446Z,1011.23
2018-04-27T04:44:29.403Z,1011.22
2018-04-27T04:45:29.354Z,1011.21
2018-04-27T04:46:29.310Z,1011.21
2018-04-27T04:47:29.260Z,1011.22
2018-04-27T04:48:29.213Z,1011.17
2018-04-27T04:49:29.170Z,1011.20
2018-04-27T04:50:29.118Z,1011.24
2018-04-27T04:51:29.076Z,1011.22
2018-04-27T04:52:29.077Z,1011.16
2018-04-27T04:53:28.981Z,1011.14
2018-04-27T04:54:28.934Z,1011.10
2018-04-27T04:55:28.888Z,1011.09
2018-04-27T04:56:28.843Z,1011.08
2018-04-27T04:57:28.797Z,1011.10
2018-04-27T04:58:28.750Z,1011.06
2018-04-27T04:59:28.717Z,1011.11
2018-04-27T05:00:28.658Z,1011.11
2018-04-27T05:01:28.615Z,1011.10
2018-04-27T05:02:28.569Z,1011.12
2018-04-27T05:03:28.520Z,1011.12
2018-04-27T05:04:28.474Z,1011.13
2018-04-27T05:05:28.428Z,1011.10
2018-04-27T05:06:28.379Z,1011.13
2018-04-27T05:07:28.335Z,1011.14
2018-04-27T05:08:28.287Z,1011.12
2018-04-27T05:09:28.243Z,1011.13
2018-04-27T05:10:28.200Z,1011.16
2018-04-27T05:11:28.149Z,1011.15
2018-04-27T05:12:28.103Z,1011.10
2018-04-27T05:13:28.058Z,1011.11
2018-04-27T05:14:28.013Z,1011.10
2018-04-27T05:15:27.979Z,1011.11
2018-04-27T05:16:27.920Z,1011.11
2018-04-27T05:17:27.874Z,1011.10
2018-04-27T05:18:27.827Z,1011.09
2018-04-27T05:19:27.785Z,1011.08
2018-04-27T05:20:27.741Z,1011.06
2018-04-27T05:21:27.690Z,1011.05
2018-04-27T05:22:27.649Z,1011.05
2018-04-27T05:23:27.600Z,1011.04
2018-04-27T05:24:27.553Z,1011.06
2018-04-27T05:25:27.527Z,1011.06
2018-04-27T05:26:27.462Z,1011.06
2018-04-27T05:27:27.415Z,1011.06
2018-04-27T05:28:27.372Z,1011.08
2018-04-27T05:29:27.323Z,1011.07
2018-04-27T05:30:27.277Z,1011.02
2018-04-27T05:31:27.235Z,1011.06
2018-04-27T05:32:27.186Z,1011.04
2018-04-27T05:33:27.142Z,1011.04
2018-04-27T05:34:27.096Z,1011.04
2018-04-27T05:35:27.050Z,1011.02
2018-04-27T05:36:27.004Z,1010.98
2018-04-27T05:37:26.958Z,1011.05
2018-04-27T05:38:26.914Z,1010.97
2018-04-27T05:39:26.867Z,1011.01
2018-04-27T05:40:26.821Z,1010.98
2018-04-27T05:41:26.779Z,1010.98
2018-04-27T05:42:26.730Z,1010.98
2018-04-27T05:43:26.733Z,1010.96
2018-04-27T05:44:26.641Z,1010.95
2018-04-27T05:45:26.599Z,1010.96
2018-04-27T05:46:26.549Z,1010.93
2018-04-27T05:47:26.504Z,1010.89
2018-04-27T05:48:26.464Z,1010.92
2018-04-27T05:49:26.414Z,1010.92
2018-04-27T05:50:26.369Z,1010.94
2018-04-27T05:51:26.325Z,1010.90
2018-04-27T05:52:26.280Z,1010.95
2018-04-27T05:53:26.236Z,1010.94
2018-04-27T05:54:26.196Z,1010.98
2018-04-27T05:56:26.100Z,1010.96
2018-04-27T05:57:26.064Z,1010.91
2018-04-27T05:58:26.015Z,1010.93
2018-04-27T05:59:25.971Z,1010.95
2018-04-27T06:00:25.926Z,1010.99
2018-04-27T06:01:25.876Z,1010.94
2018-04-27T06:02:25.831Z,1010.95
2018-04-27T06:03:25.789Z,1010.94
2018-04-27T06:04:25.740Z,1010.91
2018-04-27T06:05:25.699Z,1010.90
2018-04-27T06:06:25.648Z,1010.92
2018-04-27T06:07:25.609Z,1010.87
2018-04-27T06:08:25.559Z,1010.88
2018-04-27T06:09:25.547Z,1010.87
2018-04-27T06:10:25.518Z,1010.87
2018-04-27T06:11:25.427Z,1010.83
2018-04-27T06:12:25.380Z,1010.88
2018-04-27T06:13:25.333Z,1010.83
2018-04-27T06:14:25.290Z,1010.83
2018-04-27T06:15:25.245Z,1010.84
2018-04-27T06:16:25.201Z,1010.83
2018-04-27T06:17:25.154Z,1010.84
2018-04-27T06:18:25.113Z,1010.80
2018-04-27T06:19:25.066Z,1010.84
2018-04-27T06:20:25.020Z,1010.85
2018-04-27T06:21:24.977Z,1010.86
2018-04-27T06:22:24.931Z,1010.82
2018-04-27T06:23:24.886Z,1010.82
2018-04-27T06:24:24.841Z,1010.74
2018-04-27T06:25:24.800Z,1010.80
2018-04-27T06:26:24.754Z,1010.71
2018-04-27T06:27:24.711Z,1010.74
2018-04-27T06:28:24.664Z,1010.76
2018-04-27T06:29:24.621Z,1010.77
2018-04-27T06:30:24.577Z,1010.75
2018-04-27T06:31:24.533Z,1010.76
2018-04-27T06:32:24.486Z,1010.80
2018-04-27T06:33:24.440Z,1010.72
2018-04-27T06:34:24.397Z,1010.81
2018-04-27T06:35:24.352Z,1010.72
2018-04-27T06:36:24.307Z,1010.75
2018-04-27T06:37:24.265Z,1010.71
2018-04-27T06:38:24.222Z,1010.74
2018-04-27T06:39:24.225Z,1010.75
2018-04-27T06:40:24.129Z,1010.73
2018-04-27T06:41:24.088Z,1010.69
2018-04-27T06:42:24.048Z,1010.68
2018-04-27T06:43:24.001Z,1010.68
2018-04-27T06:44:23.952Z,1010.62
2018-04-27T06:45:23.910Z,1010.65
2018-04-27T06:46:23.868Z,1010.63
2018-04-27T06:47:23.825Z,1010.60
2018-04-27T06:48:23.775Z,1010.58
2018-04-27T06:49:23.732Z,1010.59
2018-04-27T06:50:23.695Z,1010.60
2018-04-27T06:51:23.643Z,1010.60
2018-04-27T06:52:23.603Z,1010.62
2018-04-27T06:53:23.557Z,1010.61
2018-04-27T06:54:23.512Z,1010.61
2018-04-27T06:55:23.468Z,1010.63
2018-04-27T06:56:23.426Z,1010.63
2018-04-27T06:57:23.379Z,1010.62
2018-04-27T06:58:23.335Z,1010.58
2018-04-27T06:59:23.335Z,1010.56
2018-04-27T07:00:23.258Z,1010.59
2018-04-27T07:01:23.213Z,1010.53
2018-04-27T07:02:23.172Z,1010.54
2018-04-27T07:03:23.115Z,1010.52
2018-04-27T07:04:23.073Z,1010.56
2018-04-27T07:05:23.038Z,1010.55
2018-04-27T07:06:22.988Z,1010.53
2018-04-27T07:07:22.942Z,1010.54
2018-04-27T07:08:22.898Z,1010.51
2018-04-27T07:09:22.854Z,1010.54
2018-04-27T07:10:22.810Z,1010.51
2018-04-27T07:11:22.766Z,1010.52
2018-04-27T07:12:22.723Z,1010.46
2018-04-27T07:13:22.680Z,1010.47
2018-04-27T07:14:22.639Z,1010.47
2018-04-27T07:15:22.593Z,1010.46
2018-04-27T07:16:22.549Z,1010.45
2018-04-27T07:17:22.509Z,1010.46
2018-04-27T07:18:22.462Z,1010.47
2018-04-27T07:19:22.418Z,1010.46
2018-04-27T07:20:22.373Z,1010.49
2018-04-27T07:21:22.333Z,1010.48
2018-04-27T07:22:22.291Z,1010.47
2018-04-27T07:23:22.247Z,1010.41
2018-04-27T07:24:22.248Z,1010.48
2018-04-27T07:25:22.197Z,1010.46
2018-04-27T07:26:22.118Z,1010.43
2018-04-27T07:27:22.073Z,1010.45
2018-04-27T07:28:22.031Z,1010.37
2018-04-27T07:29:21.987Z,1010.41
2018-04-27T07:30:21.942Z,1010.40
2018-04-27T07:31:21.901Z,1010.36
2018-04-27T07:32:21.857Z,1010.35
2018-04-27T07:33:21.820Z,1010.36
2018-04-27T07:35:21.732Z,1010.37
2018-04-27T07:36:21.686Z,1010.38
2018-04-27T07:37:21.644Z,1010.42
2018-04-27T07:38:21.604Z,1010.38
2018-04-27T07:39:21.559Z,1010.38
2018-04-27T07:40:21.517Z,1010.40
2018-04-27T07:41:21.477Z,1010.35
2018-04-27T07:42:21.431Z,1010.35
2018-04-27T07:43:21.387Z,1010.30
2018-04-27T07:44:21.349Z,1010.29
2018-04-27T07:45:21.388Z,1010.24
2018-04-27T07:46:21.353Z,1010.30
2018-04-27T07:47:21.313Z,1010.27
2018-04-27T07:48:21.180Z,1010.28
2018-04-27T07:49:21.141Z,1010.30
2018-04-27T07:50:21.099Z,1010.31
2018-04-27T07:51:21.053Z,1010.33
2018-04-27T07:52:21.011Z,1010.27
2018-04-27T07:53:20.970Z,1010.29
2018-04-27T07:54:20.928Z,1010.29
2018-04-27T07:55:20.897Z,1010.23
2018-04-27T07:56:20.848Z,1010.25
2018-04-27T07:57:20.807Z,1010.25
2018-04-27T07:58:20.765Z,1010.25
2018-04-27T07:59:20.723Z,1010.26
2018-04-27T08:00:20.681Z,1010.24
2018-04-27T08:01:20.642Z,1010.27
2018-04-27T08:02:20.670Z,1010.22
2018-04-27T08:03:20.562Z,1010.23
2018-04-27T08:04:20.521Z,1010.18
2018-04-27T08:05:20.476Z,1010.21
2018-04-27T08:06:20.439Z,1010.13
2018-04-27T08:08:20.358Z,1010.16
2018-04-27T08:09:20.316Z,1010.17
2018-04-27T08:10:20.275Z,1010.16
2018-04-27T08:12:20.191Z,1010.23
2018-04-27T08:13:20.151Z,1010.17
2018-04-27T08:14:20.108Z,1010.19
2018-04-27T08:16:20.031Z,1010.20
2018-04-27T08:17:19.986Z,1010.23
2018-04-27T08:18:19.945Z,1010.23
2018-04-27T08:19:19.905Z,1010.29
2018-04-27T08:20:19.864Z,1010.22
2018-04-27T08:21:19.825Z,1010.22
2018-04-27T08:22:19.785Z,1010.20
2018-04-27T08:23:19.746Z,1010.22
2018-04-27T08:24:19.703Z,1010.18
2018-04-27T08:25:19.664Z,1010.22
2018-04-27T08:26:19.625Z,1010.18
2018-04-27T08:27:19.583Z,1010.16
2018-04-27T08:28:19.548Z,1010.16
2018-04-27T08:29:19.505Z,1010.08
2018-04-27T08:30:19.531Z,1010.14
2018-04-27T08:31:19.424Z,1010.16
2018-04-27T08:32:19.390Z,1010.12
2018-04-27T08:33:19.347Z,1010.15
2018-04-27T08:34:19.364Z,1010.05
2018-04-27T08:35:19.267Z,1010.04
2018-04-27T08:36:19.224Z,1010.02
2018-04-27T08:37:19.187Z,1010.04
2018-04-27T08:38:19.146Z,1010.04
2018-04-27T08:39:19.106Z,1010.03
2018-04-27T08:40:19.065Z,1010.01
2018-04-27T08:41:19.028Z,1010.06
2018-04-27T08:42:18.989Z,1010.03
2018-04-27T08:43:18.961Z,1010.02
2018-04-27T08:44:18.907Z,1010.02
2018-04-27T08:45:18.875Z,1010.05
2018-04-27T08:46:18.831Z,1010.03
2018-04-27T08:47:18.792Z,1010.04
2018-04-27T08:48:18.754Z,1010.03
2018-04-27T08:49:18.715Z,1010.02
2018-04-27T08:50:18.681Z,1010.02
2018-04-27T08:51:18.637Z,1010.04
2018-04-27T08:52:18.599Z,1010.07
2018-04-27T08:53:18.557Z,1010.03
2018-04-27T08:54:18.531Z,1010.02
2018-04-27T08:55:18.479Z,1010.01
2018-04-27T08:56:18.438Z,1010.05
2018-04-27T08:57:18.404Z,1010.07
2018-04-27T08:58:18.369Z,1010.03
2018-04-27T08:59:18.323Z,1010.02
2018-04-27T09:00:18.284Z,1010.00
2018-04-27T09:01:18.245Z,1009.99
2018-04-27T09:02:18.209Z,1009.97
2018-04-27T09:03:18.168Z,1009.98
2018-04-27T09:04:18.129Z,1009.95
2018-04-27T09:05:18.091Z,1009.90
2018-04-27T09:06:18.098Z,1009.88
2018-04-27T09:07:18.015Z,1009.87
2018-04-27T09:08:17.975Z,1009.84
2018-04-27T09:09:17.936Z,1009.87
2018-04-27T09:10:17.899Z,1009.89
2018-04-27T09:11:17.864Z,1009.88
2018-04-27T09:12:17.819Z,1009.88
2018-04-27T09:13:17.782Z,1009.87
2018-04-27T09:14:17.745Z,1009.86
2018-04-27T09:15:17.707Z,1009.84
2018-04-27T09:16:17.673Z,1009.82
2018-04-27T09:17:17.626Z,1009.79
2018-04-27T09:18:17.588Z,1009.77
2018-04-27T09:19:17.550Z,1009.83
2018-04-27T09:20:17.517Z,1009.76
2018-04-27T09:21:17.472Z,1009.77
2018-04-27T09:22:17.433Z,1009.73
2018-04-27T09:23:17.396Z,1009.77
2018-04-27T09:24:17.363Z,1009.76
2018-04-27T09:25:17.321Z,1009.76
2018-04-27T09:26:17.278Z,1009.70
2018-04-27T09:27:17.242Z,1009.70
2018-04-27T09:28:17.202Z,1009.69
2018-04-27T09:29:17.162Z,1009.62
2018-04-27T09:30:17.123Z,1009.67
2018-04-27T09:31:17.088Z,1009.67
2018-04-27T09:32:17.070Z,1009.70
2018-04-27T09:33:17.007Z,1009.66
2018-04-27T09:34:16.972Z,1009.62
2018-04-27T09:35:16.932Z,1009.63
2018-04-27T09:36:16.893Z,1009.60
2018-04-27T09:37:16.852Z,1009.60
2018-04-27T09:38:16.816Z,1009.62
2018-04-27T09:39:16.781Z,1009.54
2018-04-27T09:40:16.739Z,1009.55
2018-04-27T09:41:16.701Z,1009.57
2018-04-27T09:42:16.674Z,1009.53
2018-04-27T09:43:16.625Z,1009.60
2018-04-27T09:44:16.583Z,1009.58
2018-04-27T09:45:16.545Z,1009.59
2018-04-27T09:46:16.506Z,1009.56
2018-04-27T09:47:16.470Z,1009.48
2018-04-27T09:48:16.430Z,1009.47
2018-04-27T09:49:16.391Z,1009.44
2018-04-27T09:50:16.358Z,1009.44
2018-04-27T09:51:16.334Z,1009.42
2018-04-27T09:52:16.299Z,1009.49
2018-04-27T09:53:16.264Z,1009.47
2018-04-27T09:54:16.279Z,1009.50
2018-04-27T09:55:16.176Z,1009.43
2018-04-27T09:56:16.153Z,1009.46
2018-04-27T09:57:16.083Z,1009.48
2018-04-27T09:58:16.048Z,1009.45
2018-04-27T09:59:16.009Z,1009.39
2018-04-27T10:00:15.967Z,1009.41
2018-04-27T10:01:15.928Z,1009.40
2018-04-27T10:02:15.887Z,1009.40
2018-04-27T10:03:15.850Z,1009.35
2018-04-27T10:04:15.811Z,1009.32
2018-04-27T10:05:15.770Z,1009.31
2018-04-27T10:06:15.737Z,1009.31
2018-04-27T10:07:15.695Z,1009.30
2018-04-27T10:08:15.657Z,1009.24
2018-04-27T10:09:15.616Z,1009.21
2018-04-27T10:10:15.579Z,1009.17
2018-04-27T10:11:15.540Z,1009.13
2018-04-27T10:12:15.502Z,1009.10
2018-04-27T10:13:15.467Z,1009.09
2018-04-27T10:14:15.427Z,1009.07
2018-04-27T10:15:15.385Z,1009.08
2018-04-27T10:16:15.354Z,1009.07
2018-04-27T10:17:15.316Z,1009.07
2018-04-27T10:18:15.272Z,1009.05
2018-04-27T10:19:15.243Z,1009.08
2018-04-27T10:20:15.197Z,1009.06
2018-04-27T10:21:15.160Z,1009.04
2018-04-27T10:22:15.122Z,1009.02
2018-04-27T10:23:15.080Z,1008.96
2018-04-27T10:24:15.040Z,1008.97
2018-04-27T10:25:15.000Z,1008.95
2018-04-27T10:26:14.963Z,1008.96
2018-04-27T10:27:14.923Z,1008.92
2018-04-27T10:28:14.886Z,1008.88
2018-04-27T10:29:14.944Z,1008.91
2018-04-27T10:30:14.811Z,1008.84
2018-04-27T10:31:14.773Z,1008.82
2018-04-27T10:32:14.735Z,1008.84
2018-04-27T10:33:14.696Z,1008.85
2018-04-27T10:34:14.655Z,1008.78
2018-04-27T10:35:14.616Z,1008.91
2018-04-27T10:36:14.576Z,1008.85
2018-04-27T10:37:14.539Z,1008.83
2018-04-27T10:38:14.501Z,1008.84
2018-04-27T10:39:14.462Z,1008.82
2018-04-27T10:40:14.423Z,1008.76
2018-04-27T10:41:14.385Z,1008.77
2018-04-27T10:42:14.347Z,1008.74
2018-04-27T10:43:14.310Z,1008.75
2018-04-27T10:44:14.271Z,1008.77
2018-04-27T10:45:14.232Z,1008.75
2018-04-27T10:46:14.197Z,1008.66
2018-04-27T10:47:14.157Z,1008.65
2018-04-27T10:48:14.117Z,1008.64
2018-04-27T10:49:14.077Z,1008.61
2018-04-27T10:50:14.087Z,1008.57
2018-04-27T10:51:14.001Z,1008.53
2018-04-27T10:52:13.961Z,1008.53
2018-04-27T10:53:13.934Z,1008.48
2018-04-27T10:54:13.890Z,1008.45
2018-04-27T10:55:13.850Z,1008.46
2018-04-27T10:56:13.811Z,1008.49
2018-04-27T10:57:13.771Z,1008.45
2018-04-27T10:58:13.734Z,1008.47
2018-04-27T10:59:13.697Z,1008.47
2018-04-27T11:00:13.661Z,1008.41
2018-04-27T11:01:13.621Z,1008.47
2018-04-27T11:02:13.583Z,1008.43
2018-04-27T11:03:13.544Z,1008.43
2018-04-27T11:04:13.508Z,1008.37
2018-04-27T11:05:13.470Z,1008.27
2018-04-27T11:06:13.436Z,1008.30
2018-04-27T11:07:13.400Z,1008.27
2018-04-27T11:08:13.357Z,1008.28
2018-04-27T11:09:13.324Z,1008.32
2018-04-27T11:10:13.282Z,1008.26
2018-04-27T11:11:13.248Z,1008.28
2018-04-27T11:12:13.204Z,1008.24
2018-04-27T11:13:13.168Z,1008.29
2018-04-27T11:14:13.133Z,1008.25
2018-04-27T11:15:13.098Z,1008.24
2018-04-27T11:16:13.060Z,1008.25
2018-04-27T11:17:13.020Z,1008.22
2018-04-27T11:18:12.981Z,1008.22
2018-04-27T11:19:12.947Z,1008.27
2018-04-27T11:20:12.915Z,1008.22
2018-04-27T11:21:12.870Z,1008.25
2018-04-27T11:22:12.835Z,1008.24
2018-04-27T11:23:12.797Z,1008.21
2018-04-27T11:24:12.761Z,1008.18
2018-04-27T11:25:12.728Z,1008.15
2018-04-27T11:26:12.690Z,1008.11
2018-04-27T11:27:12.651Z,1008.10
2018-04-27T11:28:12.617Z,1008.08
2018-04-27T11:29:12.579Z,1008.08
2018-04-27T11:30:12.542Z,1008.11
2018-04-27T11:31:12.506Z,1008.10
2018-04-27T11:32:12.471Z,1008.03
2018-04-27T11:33:12.438Z,1007.98
2018-04-27T11:34:12.395Z,1007.97
2018-04-27T11:35:12.382Z,1007.98
2018-04-27T11:36:12.330Z,1008.02
2018-04-27T11:37:12.292Z,1007.97
2018-04-27T11:38:12.259Z,1007.91
2018-04-27T11:39:12.218Z,1007.92
2018-04-27T11:40:12.183Z,1007.88
2018-04-27T11:41:12.165Z,1007.85
2018-04-27T11:42:12.113Z,1007.83
2018-04-27T11:43:12.076Z,1007.83
2018-04-27T11:44:12.039Z,1007.83
2018-04-27T11:45:12.009Z,1007.89
2018-04-27T11:46:11.973Z,1007.79
2018-04-27T11:47:11.933Z,1007.80
2018-04-27T11:48:11.899Z,1007.69
2018-04-27T11:49:11.868Z,1007.66
2018-04-27T11:50:11.830Z,1007.69
2018-04-27T11:51:11.794Z,1007.71
2018-04-27T11:52:11.759Z,1007.66
2018-04-27T11:53:11.764Z,1007.66
2018-04-27T11:54:11.692Z,1007.59
2018-04-27T11:55:11.655Z,1007.59
2018-04-27T11:56:11.621Z,1007.50
2018-04-27T11:57:11.590Z,1007.45
2018-04-27T11:58:11.556Z,1007.48
2018-04-27T11:59:11.520Z,1007.33
2018-04-27T12:00:11.488Z,1007.45
2018-04-27T12:01:11.454Z,1007.41
2018-04-27T12:02:11.418Z,1007.38
2018-04-27T12:03:11.383Z,1007.32
2018-04-27T12:04:11.351Z,1007.32
2018-04-27T12:05:11.323Z,1007.30
2018-04-27T12:06:11.282Z,1007.32
2018-04-27T12:07:11.250Z,1007.29
2018-04-27T12:08:11.213Z,1007.22
2018-04-27T12:09:11.178Z,1007.22
2018-04-27T12:10:11.149Z,1007.20